Flight Track Log - Related Links

Times and Time Zones

All times are in EDT time to prevent confusion due to time zone crossing. See the SWA118 flight status page for this flight to view local times or setup timezone preferences in your user account.

Time Position Orientation Groundspeed Altitude Reporting Facility
EDT Latitude Longitude Course Direction KTS MPH feet Rate Location/Type
Thu 03:30:35 PM 29.6314 -95.2919 123° Southeast 175 201 900  Level Houston Center
Thu 03:31:44 PM 29.6064 -95.2469 123° Southeast 252 290 3,300 2,211 Climbing Houston Center
Thu 03:32:10 PM 29.6300 -95.2367 21° North 261 300 4,400 2,656 Climbing Houston Center
Thu 03:32:45 PM 29.6792 -95.2406 356° North 287 330 6,000 2,613 Climbing Houston Center
Thu 03:33:12 PM 29.7100 -95.2442 354° North 278 320 7,100 2,951 Climbing Houston Center
Thu 03:33:46 PM 29.7578 -95.2503 354° North 288 331 9,000 2,710 Climbing Houston Center
Thu 03:34:14 PM 29.7914 -95.2544 354° North 288 331 9,900 2,600 Climbing Houston Center
Thu 03:35:16 PM 29.8761 -95.2683 352° North 302 348 12,900 2,256 Climbing Houston Center
Thu 03:36:19 PM 29.9633 -95.2633 North 324 373 14,600 2,016 Climbing Houston Center
Thu 03:37:21 PM 30.0892 -95.2372 10° North 382 440 17,100 2,226 Climbing Houston Center
Thu 03:38:23 PM 30.1958 -95.2150 10° North 390 449 19,200 2,081 Climbing Houston Center
Thu 03:39:25 PM 30.3089 -95.1914 10° North 408 470 21,400 1,984 Climbing Houston Center
Thu 03:40:27 PM 30.4219 -95.1672 10° North 415 478 23,300 1,645 Climbing Houston Center
Thu 03:41:29 PM 30.5381 -95.1072 24° Northeast 440 506 24,800 1,500 Climbing Houston Center
Thu 03:42:31 PM 30.6469 -95.0381 29° Northeast 446 513 26,400 1,584 Climbing Houston Center
Thu 03:43:34 PM 30.7586 -94.9694 28° Northeast 451 519 28,100 1,536 Climbing Houston Center
Thu 03:44:36 PM 30.8967 -94.8836 28° Northeast 466 536 29,600 1,500 Climbing Houston Center
Thu 03:45:38 PM 31.0092 -94.8125 28° Northeast 463 533 31,200 1,403 Climbing Houston Center
Thu 03:46:40 PM 31.1197 -94.7433 28° Northeast 457 526 32,500 1,065 Climbing Houston Center
Thu 03:47:42 PM 31.2303 -94.6719 29° Northeast 469 540 33,400 968 Climbing Houston Center
Thu 03:48:44 PM 31.3608 -94.5786 31° Northeast 471 542 34,500 774 Climbing Houston Center
Thu 03:49:46 PM 31.4725 -94.5028 30° Northeast 470 541 35,000 242 Climbing Houston Center
Thu 03:50:48 PM 31.5833 -94.4253 31° Northeast 466 536 35,000  Level Houston Center
Thu 03:51:50 PM 31.6950 -94.3469 31° Northeast 466 536 35,000  Level Houston Center
Thu 03:52:53 PM 31.7986 -94.2572 36° Northeast 466 536 35,000  Level Houston Center
Thu 03:53:55 PM 31.8983 -94.1075 52° Northeast 479 551 35,000  Level Houston Center
Thu 03:54:25 PM 31.9328 -94.0572 51° Northeast 466 536 35,000  Level Fort Worth Center
Thu 03:55:25 PM 32.0128 -93.9319 53° Northeast 471 542 35,000  Level Fort Worth Center
Thu 03:55:59 PM 32.0628 -93.8614 50° Northeast 477 549 35,000  Level Houston Center
Thu 03:57:01 PM 32.1444 -93.7389 52° Northeast 477 549 35,000  Level Houston Center
Thu 03:57:25 PM 32.1872 -93.6797 49° Northeast 478 550 35,000  Level Fort Worth Center
Thu 03:58:25 PM 32.2847 -93.5850 39° Northeast 462 532 35,000  Level Fort Worth Center
Thu 03:59:25 PM 32.3861 -93.4944 37° Northeast 457 526 35,000  Level Fort Worth Center
Thu 04:00:25 PM 32.4878 -93.4089 35° Northeast 450 518 35,000  Level Fort Worth Center
Thu 04:01:25 PM 32.5917 -93.3278 33° Northeast 445 512 35,000  Level Fort Worth Center
Thu 04:02:25 PM 32.7047 -93.2708 23° Northeast 432 497 35,000  Level Fort Worth Center
Thu 04:03:25 PM 32.8175 -93.2089 25° Northeast 432 497 35,000 250 Level Fort Worth Center
Thu 04:04:25 PM 32.9303 -93.1492 24° Northeast 439 505 35,500 550 Climbing Fort Worth Center
Thu 04:05:25 PM 33.0469 -93.0839 25° Northeast 445 512 36,100 479 Climbing Fort Worth Center
Thu 04:07:33 PM 33.2942 -92.9519 24° Northeast 469 540 37,000 287 Climbing Memphis Center
Thu 04:08:33 PM 33.4083 -92.8881 25° Northeast 457 526 37,000  Level Memphis Center
Thu 04:09:33 PM 33.5244 -92.8242 25° Northeast 452 520 37,000  Level Memphis Center
Thu 04:10:33 PM 33.6383 -92.7650 23° Northeast 447 514 37,000  Level Memphis Center
Thu 04:11:33 PM 33.7542 -92.7008 25° Northeast 447 514 37,000  Level Memphis Center
Thu 04:12:33 PM 33.8661 -92.6386 25° Northeast 447 514 37,000  Level Memphis Center
Thu 04:13:33 PM 33.9797 -92.5767 24° Northeast 447 514 37,000  Level Memphis Center
Thu 04:14:33 PM 34.0789 -92.5164 27° Northeast 447 514 37,000  Level Memphis Center
Thu 04:15:33 PM 34.1950 -92.4514 25° Northeast 441 507 37,000  Level Memphis Center
Thu 04:16:33 PM 34.3106 -92.3889 24° Northeast 447 514 37,000  Level Memphis Center
Thu 04:17:33 PM 34.4244 -92.3211 26° Northeast 447 514 37,000  Level Memphis Center
Thu 04:18:33 PM 34.5381 -92.2606 24° Northeast 447 514 37,000  Level Memphis Center
Thu 04:19:33 PM 34.6497 -92.1925 27° Northeast 447 514 37,000  Level Memphis Center
Thu 04:20:33 PM 34.7608 -92.1469 19° North 436 502 37,000  Level Memphis Center
Thu 04:21:33 PM 34.8764 -92.1036 17° North 431 496 37,000  Level Memphis Center
Thu 04:22:33 PM 34.9917 -92.0581 18° North 426 490 37,000  Level Memphis Center
Thu 04:23:33 PM 35.1069 -92.0172 16° North 426 490 37,000  Level Memphis Center
Thu 04:24:33 PM 35.2222 -91.9711 18° North 426 490 37,000  Level Memphis Center
Thu 04:25:33 PM 35.3375 -91.9250 18° North 426 490 37,000  Level Memphis Center
Thu 04:26:33 PM 35.4550 -91.8786 18° North 431 496 37,000  Level Memphis Center
Thu 04:27:33 PM 35.5681 -91.8347 18° North 431 496 37,000  Level Memphis Center
Thu 04:28:33 PM 35.6856 -91.7908 17° North 431 496 37,000  Level Memphis Center
Thu 04:29:33 PM 35.7986 -91.7467 18° North 426 490 37,000  Level Memphis Center
Thu 04:30:33 PM 35.9139 -91.6975 19° North 426 490 37,000  Level Memphis Center
Thu 04:31:33 PM 36.0206 -91.6556 18° North 418 481 37,000  Level Memphis Center
Thu 04:32:33 PM 36.1378 -91.6111 17° North 418 481 37,000  Level Memphis Center
Thu 04:33:33 PM 36.2508 -91.5667 18° North 425 489 37,000  Level Memphis Center
Thu 04:34:33 PM 36.3658 -91.5219 17° North 430 495 37,000  Level Memphis Center
Thu 04:35:33 PM 36.4956 -91.4719 17° North 429 494 37,000  Level Memphis Center
Thu 04:36:33 PM 36.6106 -91.4219 19° North 434 499 37,000  Level Memphis Center
Thu 04:38:37 PM 36.8489 -91.3242 18° North 439 505 37,000  Level Kansas City Center
Thu 04:39:39 PM 36.9642 -91.2767 18° North 437 503 37,000  Level Kansas City Center
Thu 04:40:41 PM 37.0797 -91.2306 18° North 436 502 37,000  Level Kansas City Center
Thu 04:41:43 PM 37.1978 -91.1811 18° North 441 507 37,000  Level Kansas City Center
Thu 04:42:45 PM 37.3131 -91.1317 19° North 439 505 37,000  Level Kansas City Center
Thu 04:43:47 PM 37.4522 -91.0767 17° North 436 502 37,000  Level Kansas City Center
Thu 04:44:49 PM 37.5667 -91.0289 18° North 435 501 37,000  Level Kansas City Center
Thu 04:45:51 PM 37.6864 -90.9811 18° North 430 495 37,000  Level Kansas City Center
Thu 04:46:53 PM 37.8033 -90.9606 North 423 487 37,000  Level Kansas City Center
Thu 04:47:55 PM 37.9183 -90.9400 North 420 483 37,000  Level Kansas City Center
Thu 04:48:57 PM 38.0347 -90.9203 North 419 482 37,000  Level Kansas City Center
Thu 04:49:59 PM 38.1508 -90.9028 North 420 483 37,000  Level Kansas City Center
Thu 04:51:01 PM 38.2669 -90.8828 North 420 483 37,000  Level Kansas City Center
Thu 04:52:04 PM 38.3839 -90.8489 13° North 431 496 37,000  Level Kansas City Center
Thu 04:53:06 PM 38.5219 -90.7878 19° North 434 499 37,000 -145 Level Kansas City Center
Thu 04:54:08 PM 38.6383 -90.7367 19° North 438 504 36,700 -629 Descending Kansas City Center
Thu 04:55:10 PM 38.7533 -90.6842 20° North 435 501 35,700 -823 Descending Kansas City Center
Thu 04:56:12 PM 38.8775 -90.6297 19° North 425 489 35,000 -339 Descending Kansas City Center
Thu 04:57:14 PM 38.9778 -90.5847 19° North 421 484 35,000 -435 Level Kansas City Center
Thu 04:58:16 PM 39.0864 -90.5336 20° North 416 479 34,100 -919 Descending Kansas City Center
Thu 04:59:18 PM 39.1950 -90.4844 19° North 413 475 33,100 -968 Descending Kansas City Center
Thu 05:00:20 PM 39.3033 -90.4356 19° North 413 475 32,100 -1,016 Descending Kansas City Center
Thu 05:01:22 PM 39.4319 -90.3761 20° North 411 473 31,000 -532 Descending Kansas City Center
Thu 05:02:24 PM 39.5383 -90.3281 19° North 407 468 31,000  Level Kansas City Center
Thu 05:03:26 PM 39.6467 -90.2778 20° North 412 474 31,000  Level Kansas City Center
Thu 05:04:28 PM 39.7569 -90.2258 20° North 416 479 31,000  Level Kansas City Center
Thu 05:05:30 PM 39.8664 -90.1744 20° North 418 481 31,000  Level Kansas City Center
Thu 05:06:32 PM 39.9761 -90.1250 19° North 418 481 31,000  Level Kansas City Center
Thu 05:07:34 PM 40.1061 -90.0639 20° North 415 478 31,000  Level Kansas City Center
Thu 05:08:36 PM 40.2156 -90.0125 20° North 418 481 31,000 -415 Level Kansas City Center
Thu 05:09:44 PM 40.3228 -89.9619 20° North 416 479 30,100 -1,200 Descending Chicago Center
Thu 05:10:46 PM 40.4425 -89.9058 20° North 384 442 28,400 -1,645 Descending Chicago Center
Thu 05:11:48 PM 40.5350 -89.8617 20° North 378 435 26,700 -1,742 Descending Chicago Center
Thu 05:12:50 PM 40.6289 -89.8161 20° North 365 420 24,800 -1,742 Descending Chicago Center
Thu 05:13:52 PM 40.7053 -89.7311 40° Northeast 382 440 23,100 -1,839 Descending Chicago Center
Thu 05:14:54 PM 40.7672 -89.5883 60° Northeast 378 435 21,000 -1,824 Descending Chicago Center
Thu 05:15:57 PM 40.8200 -89.4703 59° Northeast 374 430 19,300 -1,536 Descending Chicago Center
Thu 05:16:59 PM 40.8678 -89.3583 61° Northeast 357 411 17,800 -1,113 Descending Chicago Center
Thu 05:18:01 PM 40.9150 -89.2475 61° Northeast 345 397 17,000 -532 Descending Chicago Center
Thu 05:19:03 PM 40.9622 -89.1364 61° Northeast 345 397 16,700 -1,016 Descending Chicago Center
Thu 05:20:05 PM 41.0133 -89.0144 61° Northeast 328 377 14,900 -1,645 Descending Chicago Center
Thu 05:21:07 PM 41.0569 -88.9128 60° Northeast 320 368 13,300 -1,500 Descending Chicago Center
Thu 05:22:09 PM 41.0975 -88.8144 61° Northeast 310 357 11,800 -1,452 Descending Chicago Center
Thu 05:23:11 PM 41.1378 -88.7183 61° Northeast 301 346 10,300 -1,161 Descending Chicago Center
Thu 05:24:13 PM 41.1750 -88.6283 61° Northeast 284 327 9,400 -968 Descending Chicago Center
Thu 05:25:15 PM 41.2186 -88.5264 60° Northeast 267 307 8,300 -1,008 Descending Chicago Center
Thu 05:26:18 PM 41.2744 -88.4753 35° Northeast 253 291 7,300 -624 Descending Chicago Center
Thu 05:27:20 PM 41.3369 -88.4381 24° Northeast 247 284 7,000 -484 Descending Chicago Center
Thu 05:28:22 PM 41.3981 -88.4036 23° Northeast 239 275 6,300 -484 Descending Chicago Center
Thu 05:29:24 PM 41.4600 -88.3667 24° Northeast 240 276 6,000 -145 Descending Chicago Center
Thu 05:30:26 PM 41.4908 -88.2900 62° Northeast 245 282 6,000 -194 Level Chicago Center
Thu 05:31:28 PM 41.5161 -88.1847 72° East 246 283 5,600 -823 Descending Chicago Center
Thu 05:32:30 PM 41.5364 -88.1006 72° East 240 276 4,300 -774 Descending Chicago Center
Thu 05:33:32 PM 41.5667 -88.0292 60° Northeast 226 260 4,000 -145 Descending Chicago Center
Thu 05:34:34 PM 41.6047 -87.9767 46° Northeast 209 241 4,000  Level Chicago Center
Thu 05:35:36 PM 41.6458 -87.9289 41° Northeast 200 230 4,000 -288 Level Chicago Center
Thu 05:36:39 PM 41.6825 -87.8822 44° Northeast 192 221 3,400 -720 Descending Chicago Center
Thu 05:37:41 PM 41.7119 -87.8450 43° Northeast 169 194 2,500 -823 Descending Chicago Center
Thu 05:38:43 PM 41.7442 -87.8039 44° Northeast 147 169 1,700 -774 Descending Chicago Center
Thu 05:39:45 PM 41.7694 -87.7714 44° Northeast 135 155 900 -774 Descending Chicago Center
Thu 05:41:00 PM 41.7833 -87.7500 43° Northeast  Level FlightAware Approximate

Login

Don't have an account? Register now (free) for customized features, flight alerts, and more!